sensor_id;sensor_type;location;lat;lon;timestamp;temperature;humidity
19397;DHT22;9834;48.076;11.878;2023-04-06T00:01:27;-2.20;99.90
19397;DHT22;9834;48.076;11.878;2023-04-06T00:03:55;-2.20;99.90
19397;DHT22;9834;48.076;11.878;2023-04-06T00:06:24;-2.20;99.90
19397;DHT22;9834;48.076;11.878;2023-04-06T00:08:51;-2.30;99.90
19397;DHT22;9834;48.076;11.878;2023-04-06T00:11:19;-2.30;99.90
19397;DHT22;9834;48.076;11.878;2023-04-06T00:13:46;-2.30;99.90
19397;DHT22;9834;48.076;11.878;2023-04-06T00:16:14;-2.30;99.90
19397;DHT22;9834;48.076;11.878;2023-04-06T00:18:42;-2.30;99.90
19397;DHT22;9834;48.076;11.878;2023-04-06T00:21:11;-2.30;99.90
19397;DHT22;9834;48.076;11.878;2023-04-06T00:23:41;-2.40;99.90
19397;DHT22;9834;48.076;11.878;2023-04-06T00:26:09;-2.40;99.90
19397;DHT22;9834;48.076;11.878;2023-04-06T00:28:37;-2.40;99.90
19397;DHT22;9834;48.076;11.878;2023-04-06T00:31:04;-2.40;99.90
19397;DHT22;9834;48.076;11.878;2023-04-06T00:33:32;-2.40;99.90
19397;DHT22;9834;48.076;11.878;2023-04-06T00:36:00;-2.50;99.90
19397;DHT22;9834;48.076;11.878;2023-04-06T00:38:27;-2.50;99.90
19397;DHT22;9834;48.076;11.878;2023-04-06T00:40:57;-2.50;99.90
19397;DHT22;9834;48.076;11.878;2023-04-06T00:43:25;-2.50;99.90
19397;DHT22;9834;48.076;11.878;2023-04-06T00:45:53;-2.50;99.90
19397;DHT22;9834;48.076;11.878;2023-04-06T00:48:21;-2.50;99.90
19397;DHT22;9834;48.076;11.878;2023-04-06T00:50:48;-2.60;99.90
19397;DHT22;9834;48.076;11.878;2023-04-06T00:53:16;-2.60;99.90
19397;DHT22;9834;48.076;11.878;2023-04-06T00:55:43;-2.60;99.90
19397;DHT22;9834;48.076;11.878;2023-04-06T00:58:12;-2.60;99.90
19397;DHT22;9834;48.076;11.878;2023-04-06T01:00:40;-2.70;99.90
19397;DHT22;9834;48.076;11.878;2023-04-06T01:03:08;-2.70;99.90
19397;DHT22;9834;48.076;11.878;2023-04-06T01:05:36;-2.70;99.90
19397;DHT22;9834;48.076;11.878;2023-04-06T01:08:06;-2.70;99.90
19397;DHT22;9834;48.076;11.878;2023-04-06T01:10:34;-2.70;99.90
19397;DHT22;9834;48.076;11.878;2023-04-06T01:13:01;-2.80;99.90
19397;DHT22;9834;48.076;11.878;2023-04-06T01:15:32;-2.70;99.90
19397;DHT22;9834;48.076;11.878;2023-04-06T01:18:01;-2.80;99.90
19397;DHT22;9834;48.076;11.878;2023-04-06T01:20:30;-2.80;99.90
19397;DHT22;9834;48.076;11.878;2023-04-06T01:22:59;-2.80;99.90
19397;DHT22;9834;48.076;11.878;2023-04-06T01:25:27;-2.80;99.90
19397;DHT22;9834;48.076;11.878;2023-04-06T01:27:55;-2.80;99.90
19397;DHT22;9834;48.076;11.878;2023-04-06T01:30:22;-2.90;99.90
19397;DHT22;9834;48.076;11.878;2023-04-06T01:32:50;-2.90;99.90
19397;DHT22;9834;48.076;11.878;2023-04-06T01:35:18;-2.90;99.90
19397;DHT22;9834;48.076;11.878;2023-04-06T01:37:46;-2.90;99.90
19397;DHT22;9834;48.076;11.878;2023-04-06T01:40:15;-2.90;99.90
19397;DHT22;9834;48.076;11.878;2023-04-06T01:42:43;-2.90;99.90
19397;DHT22;9834;48.076;11.878;2023-04-06T01:45:10;-3.00;99.90
19397;DHT22;9834;48.076;11.878;2023-04-06T01:47:38;-2.90;99.90
19397;DHT22;9834;48.076;11.878;2023-04-06T01:50:06;-3.00;99.90
19397;DHT22;9834;48.076;11.878;2023-04-06T01:52:34;-3.00;99.90
19397;DHT22;9834;48.076;11.878;2023-04-06T01:55:03;-3.00;99.90
19397;DHT22;9834;48.076;11.878;2023-04-06T01:57:32;-3.10;99.90
19397;DHT22;9834;48.076;11.878;2023-04-06T02:00:00;-3.10;99.90
19397;DHT22;9834;48.076;11.878;2023-04-06T02:02:28;-3.10;99.90
19397;DHT22;9834;48.076;11.878;2023-04-06T02:04:56;-3.10;99.90
19397;DHT22;9834;48.076;11.878;2023-04-06T02:07:24;-3.10;99.90
19397;DHT22;9834;48.076;11.878;2023-04-06T02:09:54;-3.20;99.90
19397;DHT22;9834;48.076;11.878;2023-04-06T02:12:22;-3.20;99.90
19397;DHT22;9834;48.076;11.878;2023-04-06T02:14:51;-3.20;99.90
19397;DHT22;9834;48.076;11.878;2023-04-06T02:17:18;-3.20;99.90
19397;DHT22;9834;48.076;11.878;2023-04-06T02:19:46;-3.30;99.90
19397;DHT22;9834;48.076;11.878;2023-04-06T02:22:14;-3.20;99.90
19397;DHT22;9834;48.076;11.878;2023-04-06T02:24:41;-3.20;99.90
19397;DHT22;9834;48.076;11.878;2023-04-06T02:27:09;-3.20;99.90
19397;DHT22;9834;48.076;11.878;2023-04-06T02:29:37;-3.20;99.90
19397;DHT22;9834;48.076;11.878;2023-04-06T02:32:06;-3.20;99.90
19397;DHT22;9834;48.076;11.878;2023-04-06T02:34:33;-3.20;99.90
19397;DHT22;9834;48.076;11.878;2023-04-06T02:37:01;-3.20;99.90
19397;DHT22;9834;48.076;11.878;2023-04-06T02:39:29;-3.30;99.90
19397;DHT22;9834;48.076;11.878;2023-04-06T02:41:56;-3.30;99.90
19397;DHT22;9834;48.076;11.878;2023-04-06T02:44:24;-3.30;99.90
19397;DHT22;9834;48.076;11.878;2023-04-06T02:46:52;-3.40;99.90
19397;DHT22;9834;48.076;11.878;2023-04-06T02:49:21;-3.40;99.90
19397;DHT22;9834;48.076;11.878;2023-04-06T02:51:48;-3.40;99.90
19397;DHT22;9834;48.076;11.878;2023-04-06T02:54:15;-3.40;99.90
19397;DHT22;9834;48.076;11.878;2023-04-06T02:56:43;-3.40;99.90
19397;DHT22;9834;48.076;11.878;2023-04-06T02:59:11;-3.50;99.90
19397;DHT22;9834;48.076;11.878;2023-04-06T03:01:38;-3.50;99.90
19397;DHT22;9834;48.076;11.878;2023-04-06T03:04:06;-3.50;99.90
19397;DHT22;9834;48.076;11.878;2023-04-06T03:06:34;-3.50;99.90
19397;DHT22;9834;48.076;11.878;2023-04-06T03:09:02;-3.60;99.90
19397;DHT22;9834;48.076;11.878;2023-04-06T03:11:30;-3.60;99.90
19397;DHT22;9834;48.076;11.878;2023-04-06T03:13:57;-3.60;99.90
19397;DHT22;9834;48.076;11.878;2023-04-06T03:16:25;-3.60;99.90
19397;DHT22;9834;48.076;11.878;2023-04-06T03:18:52;-3.60;99.90
19397;DHT22;9834;48.076;11.878;2023-04-06T03:21:20;-3.60;99.90
19397;DHT22;9834;48.076;11.878;2023-04-06T03:23:49;-3.60;99.90
19397;DHT22;9834;48.076;11.878;2023-04-06T03:26:17;-3.60;99.90
19397;DHT22;9834;48.076;11.878;2023-04-06T03:28:44;-3.60;99.90
19397;DHT22;9834;48.076;11.878;2023-04-06T03:31:12;-3.60;99.90
19397;DHT22;9834;48.076;11.878;2023-04-06T03:33:39;-3.60;99.90
19397;DHT22;9834;48.076;11.878;2023-04-06T03:36:07;-3.60;99.90
19397;DHT22;9834;48.076;11.878;2023-04-06T03:38:35;-3.70;99.90
19397;DHT22;9834;48.076;11.878;2023-04-06T03:41:04;-3.70;99.90
19397;DHT22;9834;48.076;11.878;2023-04-06T03:43:31;-3.70;99.90
19397;DHT22;9834;48.076;11.878;2023-04-06T03:45:59;-3.70;99.90
19397;DHT22;9834;48.076;11.878;2023-04-06T03:48:30;-3.70;99.90
19397;DHT22;9834;48.076;11.878;2023-04-06T03:50:57;-3.70;99.90
19397;DHT22;9834;48.076;11.878;2023-04-06T03:53:25;-3.60;99.90
19397;DHT22;9834;48.076;11.878;2023-04-06T03:55:52;-3.60;99.90
19397;DHT22;9834;48.076;11.878;2023-04-06T03:58:21;-3.70;99.90
19397;DHT22;9834;48.076;11.878;2023-04-06T04:00:49;-3.70;99.90
19397;DHT22;9834;48.076;11.878;2023-04-06T04:03:16;-3.70;99.90
19397;DHT22;9834;48.076;11.878;2023-04-06T04:05:44;-3.70;99.90
19397;DHT22;9834;48.076;11.878;2023-04-06T04:08:12;-3.70;99.90
19397;DHT22;9834;48.076;11.878;2023-04-06T04:10:39;-3.70;99.90
19397;DHT22;9834;48.076;11.878;2023-04-06T04:13:07;-3.80;99.90
19397;DHT22;9834;48.076;11.878;2023-04-06T04:15:35;-3.80;99.90
19397;DHT22;9834;48.076;11.878;2023-04-06T04:18:03;-3.80;99.90
19397;DHT22;9834;48.076;11.878;2023-04-06T04:20:31;-3.80;99.90
19397;DHT22;9834;48.076;11.878;2023-04-06T04:22:58;-3.80;99.90
19397;DHT22;9834;48.076;11.878;2023-04-06T04:25:26;-3.80;99.90
19397;DHT22;9834;48.076;11.878;2023-04-06T04:27:53;-3.80;99.90
19397;DHT22;9834;48.076;11.878;2023-04-06T04:30:21;-3.80;99.90
19397;DHT22;9834;48.076;11.878;2023-04-06T04:32:50;-3.90;99.90
19397;DHT22;9834;48.076;11.878;2023-04-06T04:35:17;-3.80;99.90
19397;DHT22;9834;48.076;11.878;2023-04-06T04:37:45;-3.80;99.90
19397;DHT22;9834;48.076;11.878;2023-04-06T04:40:12;-3.80;99.90
19397;DHT22;9834;48.076;11.878;2023-04-06T04:42:40;-3.80;99.90
19397;DHT22;9834;48.076;11.878;2023-04-06T04:45:08;-3.80;99.90
19397;DHT22;9834;48.076;11.878;2023-04-06T04:47:35;-3.70;99.90
19397;DHT22;9834;48.076;11.878;2023-04-06T04:50:06;-3.60;99.90
19397;DHT22;9834;48.076;11.878;2023-04-06T04:52:33;-3.60;99.90
19397;DHT22;9834;48.076;11.878;2023-04-06T04:55:01;-3.50;99.90
19397;DHT22;9834;48.076;11.878;2023-04-06T04:57:29;-3.40;99.90
19397;DHT22;9834;48.076;11.878;2023-04-06T04:59:56;-3.30;99.90
19397;DHT22;9834;48.076;11.878;2023-04-06T05:02:23;-3.40;99.90
19397;DHT22;9834;48.076;11.878;2023-04-06T05:04:51;-3.30;99.90
19397;DHT22;9834;48.076;11.878;2023-04-06T05:07:20;-3.20;99.90
19397;DHT22;9834;48.076;11.878;2023-04-06T05:09:47;-3.20;99.90
19397;DHT22;9834;48.076;11.878;2023-04-06T05:12:15;-3.20;99.90
19397;DHT22;9834;48.076;11.878;2023-04-06T05:14:42;-3.10;99.90
19397;DHT22;9834;48.076;11.878;2023-04-06T05:17:10;-3.10;99.90
19397;DHT22;9834;48.076;11.878;2023-04-06T05:19:37;-3.10;99.90
19397;DHT22;9834;48.076;11.878;2023-04-06T05:22:04;-3.00;99.90
19397;DHT22;9834;48.076;11.878;2023-04-06T05:24:33;-3.00;99.90
19397;DHT22;9834;48.076;11.878;2023-04-06T05:27:02;-2.90;99.90
19397;DHT22;9834;48.076;11.878;2023-04-06T05:29:29;-2.80;99.90
19397;DHT22;9834;48.076;11.878;2023-04-06T05:31:57;-2.70;99.90
19397;DHT22;9834;48.076;11.878;2023-04-06T05:34:24;-2.60;99.90
19397;DHT22;9834;48.076;11.878;2023-04-06T05:36:52;-2.50;99.90
19397;DHT22;9834;48.076;11.878;2023-04-06T05:39:19;-2.40;99.90
19397;DHT22;9834;48.076;11.878;2023-04-06T05:41:48;-2.30;99.90
19397;DHT22;9834;48.076;11.878;2023-04-06T05:44:16;-2.20;99.90
19397;DHT22;9834;48.076;11.878;2023-04-06T05:46:43;-2.00;99.90
19397;DHT22;9834;48.076;11.878;2023-04-06T05:49:11;-1.90;99.90
19397;DHT22;9834;48.076;11.878;2023-04-06T05:51:38;-1.80;99.90
19397;DHT22;9834;48.076;11.878;2023-04-06T05:54:06;-1.70;99.90
19397;DHT22;9834;48.076;11.878;2023-04-06T05:56:33;-1.60;99.90
19397;DHT22;9834;48.076;11.878;2023-04-06T05:59:02;-1.50;99.90
19397;DHT22;9834;48.076;11.878;2023-04-06T06:01:30;-1.30;99.90
19397;DHT22;9834;48.076;11.878;2023-04-06T06:03:57;-1.30;99.90
19397;DHT22;9834;48.076;11.878;2023-04-06T06:06:25;-1.20;99.90
19397;DHT22;9834;48.076;11.878;2023-04-06T06:08:52;-1.00;99.90
19397;DHT22;9834;48.076;11.878;2023-04-06T06:11:20;-0.90;99.90
19397;DHT22;9834;48.076;11.878;2023-04-06T06:13:47;-0.60;99.90
19397;DHT22;9834;48.076;11.878;2023-04-06T06:16:17;-0.70;99.90
19397;DHT22;9834;48.076;11.878;2023-04-06T06:18:45;-0.60;99.90
19397;DHT22;9834;48.076;11.878;2023-04-06T06:21:13;-0.50;99.90
19397;DHT22;9834;48.076;11.878;2023-04-06T06:23:43;-0.30;99.90
19397;DHT22;9834;48.076;11.878;2023-04-06T06:26:10;-0.20;99.90
19397;DHT22;9834;48.076;11.878;2023-04-06T06:28:38;-0.10;99.90
19397;DHT22;9834;48.076;11.878;2023-04-06T06:31:05;0.10;99.90
19397;DHT22;9834;48.076;11.878;2023-04-06T06:33:35;0.20;99.90
19397;DHT22;9834;48.076;11.878;2023-04-06T06:36:02;0.30;99.90
19397;DHT22;9834;48.076;11.878;2023-04-06T06:38:30;0.30;99.90
19397;DHT22;9834;48.076;11.878;2023-04-06T06:40:57;0.40;99.90
19397;DHT22;9834;48.076;11.878;2023-04-06T06:43:25;0.60;99.90
19397;DHT22;9834;48.076;11.878;2023-04-06T06:45:53;0.70;99.90
19397;DHT22;9834;48.076;11.878;2023-04-06T06:48:20;0.80;99.90
19397;DHT22;9834;48.076;11.878;2023-04-06T06:50:49;0.90;99.90
19397;DHT22;9834;48.076;11.878;2023-04-06T06:53:16;1.10;99.90
19397;DHT22;9834;48.076;11.878;2023-04-06T06:55:44;1.30;99.90
19397;DHT22;9834;48.076;11.878;2023-04-06T06:58:12;1.40;99.90
19397;DHT22;9834;48.076;11.878;2023-04-06T07:00:41;1.50;99.90
19397;DHT22;9834;48.076;11.878;2023-04-06T07:03:08;1.60;99.90
19397;DHT22;9834;48.076;11.878;2023-04-06T07:05:36;1.70;99.90
19397;DHT22;9834;48.076;11.878;2023-04-06T07:08:05;1.90;99.90
19397;DHT22;9834;48.076;11.878;2023-04-06T07:10:33;2.00;99.90
19397;DHT22;9834;48.076;11.878;2023-04-06T07:13:01;2.10;99.90
19397;DHT22;9834;48.076;11.878;2023-04-06T07:15:29;2.30;99.90
19397;DHT22;9834;48.076;11.878;2023-04-06T07:17:56;2.40;98.50
19397;DHT22;9834;48.076;11.878;2023-04-06T07:20:25;2.50;97.10
19397;DHT22;9834;48.076;11.878;2023-04-06T07:22:54;2.70;96.50
19397;DHT22;9834;48.076;11.878;2023-04-06T07:25:23;2.80;95.30
19397;DHT22;9834;48.076;11.878;2023-04-06T07:27:51;2.90;94.60
19397;DHT22;9834;48.076;11.878;2023-04-06T07:30:18;2.90;94.10
19397;DHT22;9834;48.076;11.878;2023-04-06T07:32:47;2.90;93.60
19397;DHT22;9834;48.076;11.878;2023-04-06T07:35:15;3.00;93.00
19397;DHT22;9834;48.076;11.878;2023-04-06T07:37:43;3.30;93.20
19397;DHT22;9834;48.076;11.878;2023-04-06T07:40:11;3.50;91.60
19397;DHT22;9834;48.076;11.878;2023-04-06T07:42:40;3.60;91.10
19397;DHT22;9834;48.076;11.878;2023-04-06T07:45:08;3.70;90.40
19397;DHT22;9834;48.076;11.878;2023-04-06T07:47:35;3.70;88.90
19397;DHT22;9834;48.076;11.878;2023-04-06T07:50:04;3.80;88.60
19397;DHT22;9834;48.076;11.878;2023-04-06T07:52:31;4.00;88.30
19397;DHT22;9834;48.076;11.878;2023-04-06T07:54:59;4.20;86.80
19397;DHT22;9834;48.076;11.878;2023-04-06T07:57:27;4.50;84.40
19397;DHT22;9834;48.076;11.878;2023-04-06T07:59:56;4.70;84.00
19397;DHT22;9834;48.076;11.878;2023-04-06T08:02:24;5.00;81.20
19397;DHT22;9834;48.076;11.878;2023-04-06T08:04:51;5.20;79.40
19397;DHT22;9834;48.076;11.878;2023-04-06T08:07:19;5.20;76.60
19397;DHT22;9834;48.076;11.878;2023-04-06T08:09:47;5.20;76.90
19397;DHT22;9834;48.076;11.878;2023-04-06T08:12:15;5.40;76.70
19397;DHT22;9834;48.076;11.878;2023-04-06T08:14:43;5.50;74.00
19397;DHT22;9834;48.076;11.878;2023-04-06T08:17:12;5.60;72.60
19397;DHT22;9834;48.076;11.878;2023-04-06T08:19:39;5.70;74.40
19397;DHT22;9834;48.076;11.878;2023-04-06T08:22:09;5.80;70.70
19397;DHT22;9834;48.076;11.878;2023-04-06T08:24:37;5.90;69.70
19397;DHT22;9834;48.076;11.878;2023-04-06T08:27:04;6.10;72.30
19397;DHT22;9834;48.076;11.878;2023-04-06T08:29:32;6.30;69.30
19397;DHT22;9834;48.076;11.878;2023-04-06T08:31:59;6.40;71.30
19397;DHT22;9834;48.076;11.878;2023-04-06T08:34:32;6.60;71.70
19397;DHT22;9834;48.076;11.878;2023-04-06T08:36:59;6.60;69.50
19397;DHT22;9834;48.076;11.878;2023-04-06T08:39:27;6.70;70.90
19397;DHT22;9834;48.076;11.878;2023-04-06T08:41:56;6.90;68.80
19397;DHT22;9834;48.076;11.878;2023-04-06T08:44:26;6.90;66.60
19397;DHT22;9834;48.076;11.878;2023-04-06T08:46:53;7.00;68.10
19397;DHT22;9834;48.076;11.878;2023-04-06T08:49:21;7.10;66.20
19397;DHT22;9834;48.076;11.878;2023-04-06T08:51:50;7.20;63.70
19397;DHT22;9834;48.076;11.878;2023-04-06T08:54:18;7.30;61.10
19397;DHT22;9834;48.076;11.878;2023-04-06T08:56:46;7.40;64.50
19397;DHT22;9834;48.076;11.878;2023-04-06T08:59:14;7.40;63.30
19397;DHT22;9834;48.076;11.878;2023-04-06T09:01:42;7.50;59.30
19397;DHT22;9834;48.076;11.878;2023-04-06T09:04:12;7.60;58.60
19397;DHT22;9834;48.076;11.878;2023-04-06T09:06:39;7.70;57.60
19397;DHT22;9834;48.076;11.878;2023-04-06T09:09:08;7.90;61.90
19397;DHT22;9834;48.076;11.878;2023-04-06T09:11:44;8.10;61.30
19397;DHT22;9834;48.076;11.878;2023-04-06T09:14:12;8.40;60.50
19397;DHT22;9834;48.076;11.878;2023-04-06T09:16:40;8.50;59.40
19397;DHT22;9834;48.076;11.878;2023-04-06T09:19:08;8.40;55.90
19397;DHT22;9834;48.076;11.878;2023-04-06T09:21:36;8.50;58.40
19397;DHT22;9834;48.076;11.878;2023-04-06T09:24:04;8.60;58.00
19397;DHT22;9834;48.076;11.878;2023-04-06T09:26:44;8.60;60.10
19397;DHT22;9834;48.076;11.878;2023-04-06T09:29:22;8.60;58.70
19397;DHT22;9834;48.076;11.878;2023-04-06T09:31:51;8.80;58.00
19397;DHT22;9834;48.076;11.878;2023-04-06T09:34:22;8.80;55.00
19397;DHT22;9834;48.076;11.878;2023-04-06T09:36:50;9.00;59.70
19397;DHT22;9834;48.076;11.878;2023-04-06T09:39:21;9.20;61.10
19397;DHT22;9834;48.076;11.878;2023-04-06T09:41:52;9.40;55.80
19397;DHT22;9834;48.076;11.878;2023-04-06T09:44:22;9.40;52.20
19397;DHT22;9834;48.076;11.878;2023-04-06T09:46:53;9.30;56.30
19397;DHT22;9834;48.076;11.878;2023-04-06T09:49:22;9.50;59.00
19397;DHT22;9834;48.076;11.878;2023-04-06T09:51:55;9.60;57.70
19397;DHT22;9834;48.076;11.878;2023-04-06T09:54:23;9.70;57.90
19397;DHT22;9834;48.076;11.878;2023-04-06T09:57:01;9.80;55.50
19397;DHT22;9834;48.076;11.878;2023-04-06T09:59:37;9.90;54.20
19397;DHT22;9834;48.076;11.878;2023-04-06T10:02:05;10.20;57.00
19397;DHT22;9834;48.076;11.878;2023-04-06T10:04:40;10.60;56.50
19397;DHT22;9834;48.076;11.878;2023-04-06T10:07:11;11.00;52.90
19397;DHT22;9834;48.076;11.878;2023-04-06T10:09:39;11.40;54.30
19397;DHT22;9834;48.076;11.878;2023-04-06T10:12:08;11.90;51.80
19397;DHT22;9834;48.076;11.878;2023-04-06T10:14:36;12.50;48.30
19397;DHT22;9834;48.076;11.878;2023-04-06T10:17:04;12.90;47.00
19397;DHT22;9834;48.076;11.878;2023-04-06T10:19:41;13.20;44.80
19397;DHT22;9834;48.076;11.878;2023-04-06T10:22:12;13.50;48.60
19397;DHT22;9834;48.076;11.878;2023-04-06T10:24:42;13.60;44.70
19397;DHT22;9834;48.076;11.878;2023-04-06T10:27:11;13.10;42.50
19397;DHT22;9834;48.076;11.878;2023-04-06T10:29:44;12.50;43.00
19397;DHT22;9834;48.076;11.878;2023-04-06T10:32:12;11.90;45.00
19397;DHT22;9834;48.076;11.878;2023-04-06T10:34:40;11.50;45.10
19397;DHT22;9834;48.076;11.878;2023-04-06T10:37:14;11.50;43.70
19397;DHT22;9834;48.076;11.878;2023-04-06T10:39:48;11.50;43.20
19397;DHT22;9834;48.076;11.878;2023-04-06T10:42:35;11.50;44.40
19397;DHT22;9834;48.076;11.878;2023-04-06T10:45:07;11.50;42.10
19397;DHT22;9834;48.076;11.878;2023-04-06T10:47:39;11.10;42.90
19397;DHT22;9834;48.076;11.878;2023-04-06T10:50:07;12.10;48.40
19397;DHT22;9834;48.076;11.878;2023-04-06T10:52:35;13.40;44.40
19397;DHT22;9834;48.076;11.878;2023-04-06T10:55:04;14.50;42.00
19397;DHT22;9834;48.076;11.878;2023-04-06T10:57:33;14.80;40.70
19397;DHT22;9834;48.076;11.878;2023-04-06T11:00:04;14.90;38.60
19397;DHT22;9834;48.076;11.878;2023-04-06T11:02:31;14.70;38.10
19397;DHT22;9834;48.076;11.878;2023-04-06T11:04:59;14.00;38.70
19397;DHT22;9834;48.076;11.878;2023-04-06T11:07:27;13.30;39.30
19397;DHT22;9834;48.076;11.878;2023-04-06T11:09:56;13.40;42.50
19397;DHT22;9834;48.076;11.878;2023-04-06T11:12:24;13.50;38.50
19397;DHT22;9834;48.076;11.878;2023-04-06T11:14:58;13.10;38.00
19397;DHT22;9834;48.076;11.878;2023-04-06T11:17:30;12.60;38.80
19397;DHT22;9834;48.076;11.878;2023-04-06T11:19:58;12.30;39.90
19397;DHT22;9834;48.076;11.878;2023-04-06T11:22:26;13.10;41.00
19397;DHT22;9834;48.076;11.878;2023-04-06T11:25:04;14.70;38.70
19397;DHT22;9834;48.076;11.878;2023-04-06T11:27:33;15.70;35.80
19397;DHT22;9834;48.076;11.878;2023-04-06T11:30:04;15.90;35.70
19397;DHT22;9834;48.076;11.878;2023-04-06T11:32:40;16.50;35.10
19397;DHT22;9834;48.076;11.878;2023-04-06T11:35:12;17.00;37.30
19397;DHT22;9834;48.076;11.878;2023-04-06T11:37:40;17.00;37.90
19397;DHT22;9834;48.076;11.878;2023-04-06T11:40:10;16.50;37.80
19397;DHT22;9834;48.076;11.878;2023-04-06T11:42:37;15.90;32.90
19397;DHT22;9834;48.076;11.878;2023-04-06T11:45:08;15.00;33.00
19397;DHT22;9834;48.076;11.878;2023-04-06T11:47:37;13.90;33.10
19397;DHT22;9834;48.076;11.878;2023-04-06T11:50:09;13.30;35.20
19397;DHT22;9834;48.076;11.878;2023-04-06T11:52:37;12.90;37.30
19397;DHT22;9834;48.076;11.878;2023-04-06T11:55:13;12.70;37.40
19397;DHT22;9834;48.076;11.878;2023-04-06T11:57:42;12.70;38.40
19397;DHT22;9834;48.076;11.878;2023-04-06T12:00:12;13.70;41.30
19397;DHT22;9834;48.076;11.878;2023-04-06T12:02:44;14.10;37.00
19397;DHT22;9834;48.076;11.878;2023-04-06T12:05:12;14.00;37.10
19397;DHT22;9834;48.076;11.878;2023-04-06T12:07:40;14.00;37.70
19397;DHT22;9834;48.076;11.878;2023-04-06T12:10:08;14.00;36.60
19397;DHT22;9834;48.076;11.878;2023-04-06T12:12:36;14.50;36.40
19397;DHT22;9834;48.076;11.878;2023-04-06T12:15:04;16.50;34.70
19397;DHT22;9834;48.076;11.878;2023-04-06T12:17:33;17.80;34.70
19397;DHT22;9834;48.076;11.878;2023-04-06T12:20:01;18.40;33.20
19397;DHT22;9834;48.076;11.878;2023-04-06T12:22:29;20.20;34.30
19397;DHT22;9834;48.076;11.878;2023-04-06T12:24:56;21.80;33.00
19397;DHT22;9834;48.076;11.878;2023-04-06T12:27:24;23.00;32.70
19397;DHT22;9834;48.076;11.878;2023-04-06T12:29:51;24.60;29.30
19397;DHT22;9834;48.076;11.878;2023-04-06T12:32:19;25.40;28.00
19397;DHT22;9834;48.076;11.878;2023-04-06T12:34:48;25.30;25.30
19397;DHT22;9834;48.076;11.878;2023-04-06T12:37:15;25.10;25.30
19397;DHT22;9834;48.076;11.878;2023-04-06T12:39:43;24.20;25.50
19397;DHT22;9834;48.076;11.878;2023-04-06T12:42:12;23.30;25.70
19397;DHT22;9834;48.076;11.878;2023-04-06T12:44:39;21.10;27.40
19397;DHT22;9834;48.076;11.878;2023-04-06T12:47:08;20.80;26.90
19397;DHT22;9834;48.076;11.878;2023-04-06T12:49:36;21.30;26.50
19397;DHT22;9834;48.076;11.878;2023-04-06T12:52:05;22.50;29.50
19397;DHT22;9834;48.076;11.878;2023-04-06T12:54:33;23.70;27.50
19397;DHT22;9834;48.076;11.878;2023-04-06T12:57:00;22.60;26.00
19397;DHT22;9834;48.076;11.878;2023-04-06T12:59:28;20.00;26.20
19397;DHT22;9834;48.076;11.878;2023-04-06T13:02:00;18.10;27.40
19397;DHT22;9834;48.076;11.878;2023-04-06T13:04:28;16.70;29.20
19397;DHT22;9834;48.076;11.878;2023-04-06T13:06:55;15.60;31.90
19397;DHT22;9834;48.076;11.878;2023-04-06T13:09:24;14.90;31.40
19397;DHT22;9834;48.076;11.878;2023-04-06T13:11:52;14.30;31.90
19397;DHT22;9834;48.076;11.878;2023-04-06T13:14:20;15.90;38.20
19397;DHT22;9834;48.076;11.878;2023-04-06T13:16:47;17.70;29.80
19397;DHT22;9834;48.076;11.878;2023-04-06T13:19:15;17.90;29.30
19397;DHT22;9834;48.076;11.878;2023-04-06T13:21:43;16.90;30.80
19397;DHT22;9834;48.076;11.878;2023-04-06T13:24:11;16.10;30.00
19397;DHT22;9834;48.076;11.878;2023-04-06T13:26:40;15.50;31.30
19397;DHT22;9834;48.076;11.878;2023-04-06T13:29:07;14.90;32.60
19397;DHT22;9834;48.076;11.878;2023-04-06T13:31:35;14.80;32.00
19397;DHT22;9834;48.076;11.878;2023-04-06T13:34:02;14.60;32.50
19397;DHT22;9834;48.076;11.878;2023-04-06T13:36:30;14.50;32.20
19397;DHT22;9834;48.076;11.878;2023-04-06T13:38:57;14.60;32.30
19397;DHT22;9834;48.076;11.878;2023-04-06T13:41:25;14.40;34.10
19397;DHT22;9834;48.076;11.878;2023-04-06T13:43:55;13.80;33.50
19397;DHT22;9834;48.076;11.878;2023-04-06T13:46:25;13.60;35.80
19397;DHT22;9834;48.076;11.878;2023-04-06T13:48:53;13.60;33.50
19397;DHT22;9834;48.076;11.878;2023-04-06T13:51:21;13.20;33.20
19397;DHT22;9834;48.076;11.878;2023-04-06T13:53:48;13.30;33.60
19397;DHT22;9834;48.076;11.878;2023-04-06T13:56:18;13.90;34.90
19397;DHT22;9834;48.076;11.878;2023-04-06T13:58:45;15.20;31.90
19397;DHT22;9834;48.076;11.878;2023-04-06T14:01:15;15.70;30.40
19397;DHT22;9834;48.076;11.878;2023-04-06T14:03:42;16.50;30.70
19397;DHT22;9834;48.076;11.878;2023-04-06T14:06:12;16.60;31.40
19397;DHT22;9834;48.076;11.878;2023-04-06T14:08:40;16.50;30.70
19397;DHT22;9834;48.076;11.878;2023-04-06T14:11:11;15.90;30.90
19397;DHT22;9834;48.076;11.878;2023-04-06T14:13:39;15.20;32.50
19397;DHT22;9834;48.076;11.878;2023-04-06T14:16:07;14.90;32.30
19397;DHT22;9834;48.076;11.878;2023-04-06T14:18:37;16.40;31.70
19397;DHT22;9834;48.076;11.878;2023-04-06T14:21:04;17.30;31.90
19397;DHT22;9834;48.076;11.878;2023-04-06T14:23:32;19.40;29.80
19397;DHT22;9834;48.076;11.878;2023-04-06T14:26:03;20.70;29.40
19397;DHT22;9834;48.076;11.878;2023-04-06T14:28:32;22.00;28.90
19397;DHT22;9834;48.076;11.878;2023-04-06T14:31:08;21.90;27.50
19397;DHT22;9834;48.076;11.878;2023-04-06T14:33:37;21.10;26.60
19397;DHT22;9834;48.076;11.878;2023-04-06T14:36:05;18.90;26.90
19397;DHT22;9834;48.076;11.878;2023-04-06T14:38:33;17.70;28.40
19397;DHT22;9834;48.076;11.878;2023-04-06T14:41:01;18.50;28.40
19397;DHT22;9834;48.076;11.878;2023-04-06T14:43:28;20.20;28.00
19397;DHT22;9834;48.076;11.878;2023-04-06T14:46:00;21.20;26.30
19397;DHT22;9834;48.076;11.878;2023-04-06T14:48:28;20.40;26.70
19397;DHT22;9834;48.076;11.878;2023-04-06T14:50:57;18.10;27.40
19397;DHT22;9834;48.076;11.878;2023-04-06T14:53:25;16.70;29.00
19397;DHT22;9834;48.076;11.878;2023-04-06T14:55:52;15.70;30.10
19397;DHT22;9834;48.076;11.878;2023-04-06T14:58:20;15.40;31.10
19397;DHT22;9834;48.076;11.878;2023-04-06T15:00:48;15.60;31.40
19397;DHT22;9834;48.076;11.878;2023-04-06T15:03:16;16.60;30.60
19397;DHT22;9834;48.076;11.878;2023-04-06T15:05:44;17.90;30.90
19397;DHT22;9834;48.076;11.878;2023-04-06T15:08:13;17.80;29.00
19397;DHT22;9834;48.076;11.878;2023-04-06T15:10:41;16.70;29.80
19397;DHT22;9834;48.076;11.878;2023-04-06T15:13:08;15.70;32.30
19397;DHT22;9834;48.076;11.878;2023-04-06T15:15:35;15.20;33.80
19397;DHT22;9834;48.076;11.878;2023-04-06T15:18:04;14.40;34.00
19397;DHT22;9834;48.076;11.878;2023-04-06T15:20:31;14.20;34.60
19397;DHT22;9834;48.076;11.878;2023-04-06T15:23:00;14.20;36.40
19397;DHT22;9834;48.076;11.878;2023-04-06T15:25:29;14.20;36.10
19397;DHT22;9834;48.076;11.878;2023-04-06T15:27:57;14.60;36.70
19397;DHT22;9834;48.076;11.878;2023-04-06T15:30:25;16.00;33.50
19397;DHT22;9834;48.076;11.878;2023-04-06T15:32:54;16.70;31.90
19397;DHT22;9834;48.076;11.878;2023-04-06T15:35:22;16.50;32.20
19397;DHT22;9834;48.076;11.878;2023-04-06T15:37:49;16.10;33.10
19397;DHT22;9834;48.076;11.878;2023-04-06T15:40:17;17.30;36.40
19397;DHT22;9834;48.076;11.878;2023-04-06T15:42:46;19.50;31.40